Detall de PIREP

Printer-friendly versionPDF version

[2009/05/16 21:30:00]
Flight IATA:CT1001
Pilot Number:026
Company ICAO:CAT
Aircraft Type:DC85/A
PAX:136
Departing Airport: EDDF
Destination Airport: LIEA
Alternate Airport:LIEO
Online: No
Route:ANEKI Y163 NATOR UN850 ABRON UT250 VAREK UM623 PELOS
Flight Level:FL350
No Slew and time accel
No pause
Crash detect
Detect pilot in Cockpit between each 30 and 45 minutes
21:30 Zero fuel Weight: 285027 Lbs, Fuel Weight: 26988 Lbs
21:30 VATSIM:EDDF 162050Z 11003KT CAVOK 13/08 Q1016 NOSIG
21:30 VATSIM:LIEA 162050Z 05004KT CAVOK 16/14 Q1017
21:30 VOICE CATALONIAN / FRANKFURT REALOPS
21:41 Parking Brakes off
21:57 Take-off
21:57 Take off Weight: 309835 Lbs
21:57 Wind: 102º @ 005 Knots Heading: 177º
21:57 POS N50º 00´ 27´´ E008º 31´ 34´´
21:57 Flaps:2 at 169 Knots
21:57 Gear Up: 169 Knots
21:58 Flaps:1 at 180 Knots
21:58 Flaps:0 at 244 Knots
22:12 Wind:051º@018 Knots Heading
: 192º Ground Speed: 407 Knots Altitude 26341 ft
22:23 TOC
22:23 Fuel Weight: 16071 Lb
22:27 Wind:212º@006 Knots Heading: 174º Ground Speed: 441 Knots Altitude 35082 ft
22:42 Wind:358º@010 Knots Heading: 176º Ground Speed: 472 Knots Altitude 35091 ft
22:54 TOD
22:54 Fuel Weight: 9387 Lb
22:57 Wind:330º@012 Knots Heading: 207º Ground Speed: 415 Knots Altitude 32017 ft
23:12 Wind:039º@006 Knots Heading: 172º Ground Speed: 304 Knots Altitude 12326 ft
23:27 Wind:069º@005 Knots Heading: 237º Ground Speed: 265 Knots Altitude 2513 ft
23:28 Flaps:1 at 224 Knots
23:28 Gear Down: 224 Knots
23:29 Flaps:2 at 183 Knots
23:30 Flaps:3 at 172 Knots
23:30 Flaps:4 at 161 Knots
23:30 Flaps:5 at 153 Knots
23:31 TouchDown:Rate -431 ft/min Speed: 137 Knots
23:32 VATSIM:LIEA 162320Z 07005KT CAVOK 14/13 Q1017
23:32 Land
23:32 Wind:070º@005 Knots
23:32 Heading: 024º
23:32 Flight D
uration: 01:35
23:32 Landing Weight: 290814 Lbs
23:32 POS N40º 37´ 42´´ E008º 17´ 19´´
23:36 Parking brakes on
23:36 Block to Block Duration: 01:55
23:36 Final Fuel: 5251 Lbls
23:36 Spent Fuel: 21737 Lbls
23:36 Flight Length: 600 NM
23:36 TOD Land Length: 195 NM

Exportar CSV

Powered by Drupal - Modified by Danger4k